Home > Products > Valid Products > TAF

000
FTUS43 KUNR 301738
TAFGCC
TAF
KGCC 301738Z 3018/3118 17015G25KT P6SM BKN250
     FM310800 20008KT P6SM BKN120=



000
FTUS43 KUNR 301738
TAFRAP
TAF
KRAP 301738Z 3018/3118 14015G25KT P6SM SCT250
     FM310200 16010KT P6SM BKN250
     FM310800 15006KT P6SM BKN050=



000
FTUS43 KUNR 301738
TAFRAP
TAF
KRAP 301738Z 3018/3118 14015G25KT P6SM SCT250
     FM310200 16010KT P6SM BKN250
     FM310800 15006KT P6SM BKN050=



000
FTUS43 KUNR 301738
TAFGCC
TAF
KGCC 301738Z 3018/3118 17015G25KT P6SM BKN250
     FM310800 20008KT P6SM BKN120=



000
FTUS43 KUNR 301120
TAFGCC
TAF
KGCC 301120Z 3012/3112 16012KT P6SM BKN007
     FM301600 17018G28KT P6SM BKN100
     FM310300 17010KT P6SM BKN100=



000
FTUS43 KUNR 301120
TAFRAP
TAF
KRAP 301120Z 3012/3112 14007KT P6SM SCT250
      TEMPO 3012/3016 BKN010
     FM301600 15015KT P6SM BKN050=



000
FTUS43 KUNR 301120
TAFGCC
TAF
KGCC 301120Z 3012/3112 16012KT P6SM BKN007
     FM301600 17018G28KT P6SM BKN100
     FM310300 17010KT P6SM BKN100=



000
FTUS43 KUNR 301120
TAFRAP
TAF
KRAP 301120Z 3012/3112 14007KT P6SM SCT250
      TEMPO 3012/3016 BKN010
     FM301600 15015KT P6SM BKN050=



000
FTUS43 KUNR 300520
TAFRAP
TAF
KRAP 300520Z 3006/3106 03007KT P6SM SKC
      TEMPO 3009/3013 BKN010
     FM301600 15015KT P6SM BKN040=



000
FTUS43 KUNR 300520
TAFGCC
TAF
KGCC 300520Z 3006/3106 18009KT P6SM SKC
     FM301400 17018KT P6SM BKN100=



000
FTUS43 KUNR 292320
TAFGCC
TAF
KGCC 292320Z 3000/3024 04007KT P6SM SKC
     FM300400 18009KT P6SM SKC
     FM301400 17018KT P6SM SCT100=



000
FTUS43 KUNR 292320
TAFRAP
TAF
KRAP 292320Z 3000/3024 01011KT P6SM BKN040
     FM300600 15005KT P6SM SCT015
     FM301500 15015KT P6SM BKN040=



000
FTUS43 KUNR 291728
TAFRAP
TAF
KRAP 291728Z 2918/3018 35020G30KT P6SM OVC012
     FM292100 01009KT P6SM BKN040
     FM300600 15005KT P6SM SCT015=



000
FTUS43 KUNR 291728
TAFGCC
TAF
KGCC 291728Z 2918/3018 36012KT P6SM SCT020 BKN150
     FM292300 36008KT P6SM SCT250
     FM300400 18006KT P6SM SKC=



000
FTUS43 KUNR 291728
TAFRAP
TAF
KRAP 291728Z 2918/3018 35020G30KT P6SM OVC012
     FM292100 01009KT P6SM BKN040
     FM300600 15005KT P6SM SCT015=



000
FTUS43 KUNR 291728
TAFGCC
TAF
KGCC 291728Z 2918/3018 36012KT P6SM SCT020 BKN150
     FM292300 36008KT P6SM SCT250
     FM300400 18006KT P6SM SKC=



000
FTUS43 KUNR 291626 AAA
TAFGCC
TAF AMD
KGCC 291626Z 2916/3012 34010KT P6SM OVC010
     FM292100 01009KT P6SM BKN025
     FM292300 02008KT P6SM SCT250
     FM300300 17006KT P6SM SKC=



000
FTUS43 KUNR 291626 AAA
TAFGCC
TAF AMD
KGCC 291626Z 2916/3012 34010KT P6SM OVC010
     FM292100 01009KT P6SM BKN025
     FM292300 02008KT P6SM SCT250
     FM300300 17006KT P6SM SKC=



000
FTUS43 KUNR 291625 AAC
TAFRAP
TAF AMD
KRAP 291625Z 2916/3012 35020G30KT P6SM OVC010
     FM292000 01009KT P6SM BKN040
     FM300600 15005KT P6SM SKC=



000
FTUS43 KUNR 291506 AAB
TAFRAP
TAF AMD
KRAP 291506Z 2915/3012 33016G26KT 5SM -SHRA BKN004 OVC012
     FM291600 35014KT P6SM OVC015
     FM292000 01009KT P6SM BKN040
     FM300600 15005KT P6SM SKC=



000
FTUS43 KUNR 291338 AAA
TAFRAP
TAF AMD
KRAP 291338Z 2914/3012 33016G26KT 3SM -SHRA BKN004 OVC012
     FM291500 35014KT P6SM OVC015
     FM292000 01009KT P6SM BKN040
     FM300600 15005KT P6SM SKC=



000
FTUS43 KUNR 291338 AAA
TAFRAP
TAF AMD
KRAP 291338Z 2914/3012 33016G26KT 3SM -SHRA BKN004 OVC012
     FM291500 35014KT P6SM OVC015
     FM292000 01009KT P6SM BKN040
     FM300600 15005KT P6SM SKC=



000
FTUS43 KUNR 291120
TAFGCC
TAF
KGCC 291120Z 2912/3012 35010KT 5SM -SHRA BR OVC007
     FM291900 01009KT P6SM BKN025
     FM292300 02008KT P6SM SCT250
     FM300300 17006KT P6SM SKC=



000
FTUS43 KUNR 291120
TAFRAP
TAF
KRAP 291120Z 2912/3012 33016KT 4SM -SHRA BR OVC012
     FM291900 35014KT P6SM BKN025
     FM300000 01009KT P6SM SCT250
     FM300600 15005KT P6SM SKC=



000
FTUS43 KUNR 291120
TAFGCC
TAF
KGCC 291120Z 2912/3012 35010KT 5SM -SHRA BR OVC007
     FM291900 01009KT P6SM BKN025
     FM292300 02008KT P6SM SCT250
     FM300300 17006KT P6SM SKC=



000
FTUS43 KUNR 291120
TAFRAP
TAF
KRAP 291120Z 2912/3012 33016KT 4SM -SHRA BR OVC012
     FM291900 35014KT P6SM BKN025
     FM300000 01009KT P6SM SCT250
     FM300600 15005KT P6SM SKC=



000
FTUS43 KUNR 290520
TAFRAP
TAF
KRAP 290520Z 2906/3006 32013KT P6SM SCT040 BKN090
     FM290900 33016KT 4SM -SHRA BR OVC012
     FM291900 35014KT P6SM BKN015=



000
FTUS43 KUNR 290520
TAFGCC
TAF
KGCC 290520Z 2906/3006 31010KT P6SM BKN060
     FM290800 33009KT 5SM -SHRA BR OVC008
     FM291900 35009KT P6SM BKN025=



000
FTUS43 KUNR 290520
TAFGCC
TAF
KGCC 290520Z 2906/3006 31010KT P6SM BKN060
     FM290800 33009KT 5SM -SHRA BR OVC008
     FM291900 35009KT P6SM BKN025=



000
FTUS43 KUNR 290520
TAFRAP
TAF
KRAP 290520Z 2906/3006 32013KT P6SM SCT040 BKN090
     FM290900 33016KT 4SM -SHRA BR OVC012
     FM291900 35014KT P6SM BKN015=



000
FTUS43 KUNR 290108 AAA
TAFRAP
TAF AMD
KRAP 290108Z 2901/2924 32013KT P6SM SCT040 BKN090
     FM290300 35011KT P6SM -SHRA OVC040
     FM290800 33011KT P6SM -SHRA OVC012=



000
FTUS43 KUNR 290108 AAA
TAFRAP
TAF AMD
KRAP 290108Z 2901/2924 32013KT P6SM SCT040 BKN090
     FM290300 35011KT P6SM -SHRA OVC040
     FM290800 33011KT P6SM -SHRA OVC012=



000
FTUS43 KUNR 282320
TAFRAP
TAF
KRAP 282320Z 2900/2924 32013KT P6SM -SHRA BKN040
      TEMPO 2900/2903 3SM TSRA OVC025CB
     FM290300 35011KT P6SM OVC025
     FM290800 33011KT P6SM -SHRA OVC012=



000
FTUS43 KUNR 282320
TAFGCC
TAF
KGCC 282320Z 2900/2924 36012KT P6SM SCT035
     FM290600 32009KT 5SM -SHRA BR OVC008=



000
FTUS43 KUNR 282320
TAFGCC
TAF
KGCC 282320Z 2900/2924 36012KT P6SM SCT035
     FM290600 32009KT 5SM -SHRA BR OVC008=



000
FTUS43 KUNR 282320
TAFRAP
TAF
KRAP 282320Z 2900/2924 32013KT P6SM -SHRA BKN040
      TEMPO 2900/2903 3SM TSRA OVC025CB
     FM290300 35011KT P6SM OVC025
     FM290800 33011KT P6SM -SHRA OVC012=



000
FTUS43 KUNR 282027 AAA
TAFRAP
TAF AMD
KRAP 282027Z 2820/2918 35009KT P6SM SCT070
      TEMPO 2821/2901 -TSRA BKN040CB
     FM290100 35011KT P6SM OVC025
     FM290800 33011KT P6SM -SHRA OVC012=



000
FTUS43 KUNR 281720
TAFGCC
TAF
KGCC 281720Z 2818/2918 35009KT P6SM BKN080
      TEMPO 2818/2822 -TSRA BKN040CB
     FM290800 32009KT 5SM -SHRA OVC008=



000
FTUS43 KUNR 281720
TAFRAP
TAF
KRAP 281720Z 2818/2918 36011KT P6SM SCT070
     FM282000 35009KT P6SM -TSRA OVC050CB
     FM290100 35011KT P6SM OVC025
     FM290800 33011KT P6SM -SHRA OVC012=



000
FTUS43 KUNR 281720
TAFGCC
TAF
KGCC 281720Z 2818/2918 35009KT P6SM BKN080
      TEMPO 2818/2822 -TSRA BKN040CB
     FM290800 32009KT 5SM -SHRA OVC008=



000
FTUS43 KUNR 281720
TAFRAP
TAF
KRAP 281720Z 2818/2918 36011KT P6SM SCT070
     FM282000 35009KT P6SM -TSRA OVC050CB
     FM290100 35011KT P6SM OVC025
     FM290800 33011KT P6SM -SHRA OVC012=



000
FTUS43 KUNR 281435 AAA
TAFGCC
TAF AMD
KGCC 281435Z 2815/2912 32008KT P6SM BKN080
      TEMPO 2815/2817 SCT020 BKN030
     FM281700 35009KT P6SM -SHRA OVC050
     FM282100 34014KT 5SM -TSRA OVC035CB
     FM290600 32009KT 2SM -RA BR OVC008=



000
FTUS43 KUNR 281124
TAFGCC
TAF
KGCC 281124Z 2812/2912 VRB05KT P6SM BKN080
     FM281600 35009KT P6SM -SHRA OVC050
     FM282100 34014KT 5SM -TSRA OVC035CB
     FM290600 32009KT 2SM -RA BR OVC008=



000
FTUS43 KUNR 281124
TAFRAP
TAF
KRAP 281124Z 2812/2912 04008KT P6SM BKN100
     FM281700 35009KT P6SM -TSRA OVC050CB
     FM290000 35013KT P6SM -SHRA OVC025=



000
FTUS43 KUNR 280520
TAFRAP
TAF
KRAP 280520Z 2806/2906 24008KT P6SM BKN100
     FM281700 35009KT P6SM -TSRA OVC050CB
     FM290000 35013KT P6SM -SHRA OVC025=



000
FTUS43 KUNR 280520
TAFGCC
TAF
KGCC 280520Z 2806/2906 VRB05KT P6SM -SHRA SCT040 OVC080
      TEMPO 2806/2808 5SM TSRA OVC040CB
     FM281600 34009KT P6SM -SHRA OVC040=



000
FTUS43 KUNR 280333 AAB
TAFGCC
TAF AMD
KGCC 280333Z 2804/2824 VRB05KT P6SM SCT040 BKN080
      TEMPO 2804/2806 6SM -TSRA BKN050CB
     FM280600 VRB05KT P6SM SCT040 BKN080
      TEMPO 2810/2814 -SHRA OVC015
     FM281700 34009KT P6SM -SHRA OVC040=



000
FTUS43 KUNR 280333 AAB
TAFGCC
TAF AMD
KGCC 280333Z 2804/2824 VRB05KT P6SM SCT040 BKN080
      TEMPO 2804/2806 6SM -TSRA BKN050CB
     FM280600 VRB05KT P6SM SCT040 BKN080
      TEMPO 2810/2814 -SHRA OVC015
     FM281700 34009KT P6SM -SHRA OVC040=



000
FTUS43 KUNR 280146 AAA
TAFGCC
TAF AMD
KGCC 280146Z 2802/2824 VRB05KT P6SM SCT040 BKN080
      TEMPO 2802/2804 -TSRA BKN050CB
     FM280400 VRB05KT P6SM SCT040 BKN080
      TEMPO 2810/2814 -SHRA OVC015
     FM281700 34009KT P6SM -SHRA OVC040=



000
FTUS43 KUNR 272330
TAFGCC
TAF
KGCC 272330Z 2800/2824 VRB05KT P6SM SCT040 BKN080
      TEMPO 2810/2814 -SHRA OVC015
     FM281700 34009KT P6SM -SHRA OVC040=



000
FTUS43 KUNR 272330
TAFRAP
TAF
KRAP 272330Z 2800/2824 15009KT P6SM SCT050 BKN100
     FM280600 24008KT P6SM BKN150
     FM281800 35009KT P6SM -TSRA OVC050CB=



000
FTUS43 KUNR 272128 AAA
TAFRAP
TAF AMD
KRAP 272128Z 2721/2818 17009KT P6SM BKN060
      TEMPO 2721/2722 3SM TSRA BKN040CB
     FM280600 24008KT P6SM BKN150=



    US Dept of Commerce
    National Oceanic and Atmospheric Administration
    National Weather Service
    1325 East West Highway
    Silver Spring, MD 20910
    Page Author: NWS Internet Services Team
Disclaimer
Information Quality
Credits
Glossary
Privacy Policy
Freedom of Information Act (FOIA)
About Us
Career Opportunities